createdAt,value
2018-11-02T00:00:13.228Z,0
2018-11-02T00:01:22.081Z,0
2018-11-02T00:02:30.713Z,0
2018-11-02T00:03:39.901Z,0
2018-11-02T00:04:48.540Z,0
2018-11-02T00:05:57.190Z,0
2018-11-02T00:07:05.836Z,0
2018-11-02T00:08:14.471Z,0
2018-11-02T00:09:23.396Z,0
2018-11-02T00:10:32.034Z,0
2018-11-02T00:11:40.682Z,0
2018-11-02T00:12:49.320Z,0
2018-11-02T00:13:57.954Z,0
2018-11-02T00:15:06.603Z,0
2018-11-02T00:16:15.231Z,0
2018-11-02T00:17:24.146Z,0
2018-11-02T00:18:33.051Z,0
2018-11-02T00:19:41.705Z,0
2018-11-02T00:20:50.597Z,0
2018-11-02T00:21:59.241Z,0
2018-11-02T00:23:07.879Z,0
2018-11-02T00:24:16.529Z,0
2018-11-02T00:25:25.168Z,0
2018-11-02T00:26:33.803Z,0
2018-11-02T00:27:42.439Z,0
2018-11-02T00:28:51.348Z,0
2018-11-02T00:30:00.312Z,0
2018-11-02T00:31:09.480Z,0
2018-11-02T00:32:18.394Z,0
2018-11-02T00:33:27.023Z,0
2018-11-02T00:34:35.670Z,0
2018-11-02T00:35:44.304Z,0
2018-11-02T00:36:52.945Z,0
2018-11-02T00:38:01.579Z,0
2018-11-02T00:39:10.225Z,0
2018-11-02T00:40:18.865Z,0
2018-11-02T00:41:27.507Z,0
2018-11-02T00:42:36.140Z,0
2018-11-02T00:43:44.793Z,0
2018-11-02T00:44:53.691Z,0
2018-11-02T00:46:02.338Z,0
2018-11-02T00:47:10.977Z,0
2018-11-02T00:48:19.605Z,0
2018-11-02T00:49:28.250Z,0
2018-11-02T00:50:36.890Z,0
2018-11-02T00:51:45.538Z,0
2018-11-02T00:52:54.170Z,0
2018-11-02T00:54:03.352Z,0
2018-11-02T00:55:12.658Z,0
2018-11-02T00:56:21.307Z,0
2018-11-02T00:57:29.934Z,0
2018-11-02T00:58:38.588Z,0
2018-11-02T00:59:47.222Z,0
2018-11-02T01:00:56.151Z,0
2018-11-02T01:02:04.788Z,0
2018-11-02T01:03:13.470Z,0
2018-11-02T01:04:22.110Z,0
2018-11-02T01:05:30.746Z,0
2018-11-02T01:06:39.396Z,0
2018-11-02T01:07:48.032Z,0
2018-11-02T01:08:56.746Z,0
2018-11-02T01:10:05.308Z,0
2018-11-02T01:11:13.955Z,0
2018-11-02T01:12:22.594Z,0
2018-11-02T01:13:31.235Z,0
2018-11-02T01:14:39.870Z,0
2018-11-02T01:15:48.520Z,0
2018-11-02T01:16:57.158Z,0
2018-11-02T01:18:05.798Z,0
2018-11-02T01:19:14.437Z,0
2018-11-02T01:20:23.075Z,0
2018-11-02T01:21:31.713Z,0
2018-11-02T01:22:40.630Z,0
2018-11-02T01:23:49.274Z,0
2018-11-02T01:24:57.908Z,0
2018-11-02T01:26:06.555Z,0
2018-11-02T01:27:15.193Z,0
2018-11-02T01:28:23.835Z,0
2018-11-02T01:29:32.469Z,0
2018-11-02T01:30:41.109Z,0
2018-11-02T01:31:49.749Z,0
2018-11-02T01:32:58.395Z,0
2018-11-02T01:34:07.623Z,0
2018-11-02T01:35:16.845Z,0
2018-11-02T01:36:26.098Z,0
2018-11-02T01:37:34.744Z,0
2018-11-02T01:38:43.379Z,0
2018-11-02T01:39:52.295Z,0
2018-11-02T01:41:00.934Z,0
2018-11-02T01:42:09.572Z,0
2018-11-02T01:43:18.211Z,0
2018-11-02T01:44:26.872Z,0
2018-11-02T01:45:35.491Z,0
2018-11-02T01:46:44.126Z,0
2018-11-02T01:47:52.769Z,0
2018-11-02T01:49:01.685Z,0
2018-11-02T01:50:10.326Z,0
2018-11-02T01:51:18.962Z,0
2018-11-02T01:52:27.607Z,0
2018-11-02T01:53:36.244Z,0
2018-11-02T01:54:44.887Z,0
2018-11-02T01:55:53.521Z,0
2018-11-02T01:57:02.161Z,0
2018-11-02T01:58:11.073Z,0
2018-11-02T01:59:19.714Z,0
2018-11-02T02:00:28.356Z,0
2018-11-02T02:01:36.990Z,0
2018-11-02T02:02:45.632Z,0
2018-11-02T02:03:54.320Z,0
2018-11-02T02:05:02.921Z,0
2018-11-02T02:06:11.553Z,0
2018-11-02T02:07:20.192Z,0
2018-11-02T02:08:28.832Z,0
2018-11-02T02:09:37.478Z,0
2018-11-02T02:10:46.603Z,0
2018-11-02T02:11:55.247Z,0
2018-11-02T02:13:04.562Z,0
2018-11-02T02:14:13.518Z,0
2018-11-02T02:15:22.156Z,0
2018-11-02T02:16:30.793Z,0
2018-11-02T02:17:39.705Z,0
2018-11-02T02:18:48.340Z,0
2018-11-02T02:19:57.266Z,0
2018-11-02T02:21:06.496Z,0
2018-11-02T02:22:15.381Z,0
2018-11-02T02:23:24.554Z,0
2018-11-02T02:24:33.203Z,0
2018-11-02T02:25:41.840Z,0
2018-11-02T02:26:50.486Z,0
2018-11-02T02:27:59.668Z,0
2018-11-02T02:29:08.319Z,0
2018-11-02T02:30:17.248Z,0
2018-11-02T02:31:26.445Z,0
2018-11-02T02:32:35.353Z,0
2018-11-02T02:33:44.002Z,0
2018-11-02T02:34:52.920Z,0
2018-11-02T02:36:01.824Z,0
2018-11-02T02:37:10.464Z,0
2018-11-02T02:38:19.099Z,0
2018-11-02T02:39:27.743Z,0
2018-11-02T02:40:36.379Z,0
2018-11-02T02:41:45.027Z,0
2018-11-02T02:42:53.666Z,0
2018-11-02T02:44:02.600Z,0
2018-11-02T02:45:11.523Z,0
2018-11-02T02:46:20.172Z,0
2018-11-02T02:47:29.077Z,0
2018-11-02T02:48:37.723Z,0
2018-11-02T02:49:46.363Z,0
2018-11-02T02:50:55.013Z,0
2018-11-02T02:52:03.651Z,0
2018-11-02T02:53:12.287Z,0
2018-11-02T02:54:20.929Z,0
2018-11-02T02:55:30.103Z,0
2018-11-02T02:56:38.752Z,0
2018-11-02T02:57:47.387Z,0
2018-11-02T02:58:56.036Z,0
2018-11-02T03:00:04.666Z,0
2018-11-02T03:01:13.322Z,0
2018-11-02T03:02:21.957Z,0
2018-11-02T03:03:30.873Z,0
2018-11-02T03:04:39.504Z,0
2018-11-02T03:05:48.153Z,0
2018-11-02T03:06:56.795Z,0
2018-11-02T03:08:05.713Z,0
2018-11-02T03:09:14.352Z,0
2018-11-02T03:10:23.786Z,0
2018-11-02T03:11:32.262Z,0
2018-11-02T03:12:40.905Z,0
2018-11-02T03:13:49.547Z,0
2018-11-02T03:14:58.449Z,0
2018-11-02T03:16:07.089Z,0
2018-11-02T03:17:15.731Z,0
2018-11-02T03:18:24.397Z,0
2018-11-02T03:19:33.618Z,0
2018-11-02T03:20:42.267Z,0
2018-11-02T03:21:51.171Z,0
2018-11-02T03:22:59.815Z,0
2018-11-02T03:24:08.462Z,0
2018-11-02T03:25:17.127Z,0
2018-11-02T03:26:25.741Z,0
2018-11-02T03:27:34.388Z,0
2018-11-02T03:28:43.024Z,0
2018-11-02T03:29:51.664Z,0
2018-11-02T03:31:00.575Z,0
2018-11-02T03:32:09.772Z,0
2018-11-02T03:33:18.420Z,0
2018-11-02T03:34:27.074Z,0
2018-11-02T03:35:35.981Z,0
2018-11-02T03:36:44.888Z,0
2018-11-02T03:37:54.078Z,0
2018-11-02T03:39:02.716Z,0
2018-11-02T03:40:11.361Z,0
2018-11-02T03:41:19.996Z,0
2018-11-02T03:42:28.642Z,0
2018-11-02T03:43:37.583Z,0
2018-11-02T03:44:46.225Z,0
2018-11-02T03:45:54.864Z,0
2018-11-02T03:47:03.509Z,0
2018-11-02T03:48:12.148Z,0
2018-11-02T03:49:20.790Z,0
2018-11-02T03:50:29.485Z,0
2018-11-02T03:51:38.391Z,0
2018-11-02T03:52:47.036Z,0
2018-11-02T03:53:55.677Z,0
2018-11-02T03:55:06.143Z,0
2018-11-02T03:56:15.060Z,0
2018-11-02T03:57:23.705Z,0
2018-11-02T03:58:32.341Z,0
2018-11-02T03:59:41.380Z,0
2018-11-02T04:00:50.559Z,0
2018-11-02T04:01:59.203Z,0
2018-11-02T04:03:07.842Z,0
2018-11-02T04:04:16.489Z,0
2018-11-02T04:05:25.136Z,0
2018-11-02T04:06:33.781Z,0
2018-11-02T04:07:42.412Z,0
2018-11-02T04:08:51.048Z,0
2018-11-02T04:09:59.686Z,0
2018-11-02T04:11:08.595Z,0
2018-11-02T04:12:17.234Z,0
2018-11-02T04:13:25.883Z,0
2018-11-02T04:14:34.524Z,0
2018-11-02T04:15:43.480Z,0
2018-11-02T04:16:52.117Z,0
2018-11-02T04:18:01.296Z,0
2018-11-02T04:19:09.938Z,0
2018-11-02T04:20:18.857Z,0
2018-11-02T04:21:27.497Z,0
2018-11-02T04:22:36.147Z,0
2018-11-02T04:23:45.057Z,0
2018-11-02T04:24:53.962Z,0
2018-11-02T04:26:02.602Z,0
2018-11-02T04:27:11.240Z,0
2018-11-02T04:28:19.887Z,0
2018-11-02T04:29:28.533Z,0
2018-11-02T04:30:37.225Z,0
2018-11-02T04:31:45.808Z,0
2018-11-02T04:32:54.453Z,0
2018-11-02T04:34:03.096Z,0
2018-11-02T04:35:11.734Z,0
2018-11-02T04:36:20.371Z,0
2018-11-02T04:37:29.294Z,0
2018-11-02T04:38:37.952Z,0
2018-11-02T04:39:46.574Z,0
2018-11-02T04:40:55.212Z,0
2018-11-02T04:42:03.856Z,0
2018-11-02T04:43:12.497Z,0
2018-11-02T04:44:21.141Z,0
2018-11-02T04:45:29.783Z,0
2018-11-02T04:46:38.419Z,0
2018-11-02T04:47:47.056Z,0
2018-11-02T04:48:55.700Z,0
2018-11-02T04:50:04.883Z,0
2018-11-02T04:51:13.897Z,0
2018-11-02T04:52:22.426Z,0
2018-11-02T04:53:31.341Z,0
2018-11-02T04:54:39.999Z,0
2018-11-02T04:55:49.175Z,0
2018-11-02T04:56:58.091Z,0
2018-11-02T04:58:06.732Z,0
2018-11-02T04:59:15.380Z,0
2018-11-02T05:00:24.018Z,0
2018-11-02T05:01:32.655Z,0
2018-11-02T05:02:41.305Z,0
2018-11-02T05:03:50.251Z,0
2018-11-02T05:04:58.901Z,0
2018-11-02T05:06:07.546Z,0
2018-11-02T05:07:16.190Z,0
2018-11-02T05:08:24.820Z,0
2018-11-02T05:09:33.549Z,0
2018-11-02T05:10:42.107Z,0
2018-11-02T05:11:50.755Z,0
2018-11-02T05:12:59.387Z,0
2018-11-02T05:14:08.037Z,0
2018-11-02T05:15:16.677Z,0
2018-11-02T05:16:25.323Z,0
2018-11-02T05:17:33.956Z,0
2018-11-02T05:18:42.598Z,0
2018-11-02T05:19:51.528Z,0
2018-11-02T05:21:00.459Z,0
2018-11-02T05:22:09.406Z,0
2018-11-02T05:23:18.029Z,0
2018-11-02T05:24:26.682Z,0
2018-11-02T05:25:35.861Z,0
2018-11-02T05:26:44.811Z,0
2018-11-02T05:27:53.443Z,0
2018-11-02T05:29:02.095Z,0
2018-11-02T05:30:10.732Z,0
2018-11-02T05:31:19.381Z,0
2018-11-02T05:32:28.298Z,0
2018-11-02T05:33:36.941Z,0
2018-11-02T05:34:45.575Z,0
2018-11-02T05:35:54.224Z,0
2018-11-02T05:37:03.144Z,0
2018-11-02T05:38:11.779Z,0
2018-11-02T05:39:20.464Z,0
2018-11-02T05:40:29.895Z,0
2018-11-02T05:41:38.543Z,0
2018-11-02T05:42:47.180Z,0
2018-11-02T05:43:55.848Z,0
2018-11-02T05:45:04.453Z,0
2018-11-02T05:46:13.102Z,0
2018-11-02T05:47:22.258Z,0
2018-11-02T05:48:30.761Z,0
2018-11-02T05:49:39.392Z,0
2018-11-02T05:50:48.039Z,0
2018-11-02T05:51:56.675Z,0
2018-11-02T05:53:05.322Z,0
2018-11-02T05:54:13.963Z,0
2018-11-02T05:55:22.587Z,0
2018-11-02T05:56:31.231Z,0
2018-11-02T05:57:39.875Z,0
2018-11-02T05:58:48.518Z,0
2018-11-02T05:59:57.412Z,0
2018-11-02T06:01:06.057Z,0
2018-11-02T06:02:15.009Z,0
2018-11-02T06:03:23.658Z,4
2018-11-02T06:04:32.298Z,0
2018-11-02T06:05:40.946Z,4
2018-11-02T06:06:49.584Z,4
2018-11-02T06:07:58.225Z,4
2018-11-02T06:09:06.863Z,4
2018-11-02T06:10:15.498Z,8
2018-11-02T06:11:24.142Z,8
2018-11-02T06:12:33.063Z,8
2018-11-02T06:13:41.707Z,12
2018-11-02T06:14:50.347Z,16
2018-11-02T06:15:58.987Z,16
2018-11-02T06:17:07.896Z,20
2018-11-02T06:18:16.528Z,24
2018-11-02T06:19:25.165Z,28
2018-11-02T06:20:33.802Z,32
2018-11-02T06:21:42.443Z,36
2018-11-02T06:22:51.080Z,48
2018-11-02T06:23:59.832Z,56
2018-11-02T06:25:08.356Z,64
2018-11-02T06:26:17.002Z,60
2018-11-02T06:27:25.922Z,60
2018-11-02T06:28:34.831Z,56
2018-11-02T06:29:43.471Z,72
2018-11-02T06:30:52.115Z,80
2018-11-02T06:32:01.118Z,80
2018-11-02T06:33:09.758Z,80
2018-11-02T06:34:18.394Z,104
2018-11-02T06:35:27.029Z,104
2018-11-02T06:36:35.675Z,92
2018-11-02T06:37:44.311Z,72
2018-11-02T06:38:53.051Z,80
2018-11-02T06:40:01.591Z,96
2018-11-02T06:41:10.233Z,100
2018-11-02T06:42:18.876Z,120
2018-11-02T06:43:27.780Z,112
2018-11-02T06:44:36.437Z,120
2018-11-02T06:45:45.063Z,124
2018-11-02T06:46:53.705Z,124
2018-11-02T06:48:02.348Z,120
2018-11-02T06:49:10.982Z,152
2018-11-02T06:50:19.629Z,156
2018-11-02T06:51:28.267Z,140
2018-11-02T06:52:36.908Z,144
2018-11-02T06:53:45.549Z,148
2018-11-02T06:54:54.185Z,148
2018-11-02T06:56:02.822Z,140
2018-11-02T06:57:11.462Z,148
2018-11-02T06:58:20.108Z,176
2018-11-02T06:59:28.982Z,168
2018-11-02T07:00:37.568Z,208
2018-11-02T07:01:46.024Z,236
2018-11-02T07:02:54.669Z,280
2018-11-02T07:04:03.302Z,324
2018-11-02T07:05:11.947Z,324
2018-11-02T07:06:20.582Z,364
2018-11-02T07:07:29.394Z,364
2018-11-02T07:08:38.023Z,384
2018-11-02T07:09:46.503Z,400
2018-11-02T07:10:55.140Z,400
2018-11-02T07:12:03.784Z,396
2018-11-02T07:13:12.431Z,392
2018-11-02T07:14:21.334Z,380
2018-11-02T07:15:29.979Z,368
2018-11-02T07:16:38.609Z,348
2018-11-02T07:17:47.559Z,332
2018-11-02T07:18:56.194Z,308
2018-11-02T07:20:04.839Z,284
2018-11-02T07:21:13.472Z,300
2018-11-02T07:22:22.122Z,288
2018-11-02T07:23:30.758Z,308
2018-11-02T07:24:39.950Z,352
2018-11-02T07:25:48.578Z,404
2018-11-02T07:26:57.493Z,536
2018-11-02T07:28:06.416Z,620
2018-11-02T07:29:15.057Z,692
2018-11-02T07:30:23.708Z,616
2018-11-02T07:31:32.333Z,640
2018-11-02T07:32:40.979Z,532
2018-11-02T07:33:49.612Z,472
2018-11-02T07:35:00.418Z,432
2018-11-02T07:36:09.597Z,412
2018-11-02T07:37:18.244Z,412
2018-11-02T07:38:26.879Z,540
2018-11-02T07:39:35.534Z,580
2018-11-02T07:40:44.165Z,584
2018-11-02T07:41:52.811Z,496
2018-11-02T07:43:01.449Z,532
2018-11-02T07:44:10.382Z,604
2018-11-02T07:45:19.019Z,716
2018-11-02T07:46:27.655Z,768
2018-11-02T07:47:36.416Z,776
2018-11-02T07:48:44.934Z,776
2018-11-02T07:49:53.580Z,740
2018-11-02T07:51:02.220Z,688
2018-11-02T07:52:11.131Z,660
2018-11-02T07:53:19.763Z,640
2018-11-02T07:54:28.411Z,620
2018-11-02T07:55:37.045Z,640
2018-11-02T07:56:45.689Z,732
2018-11-02T07:57:54.321Z,840
2018-11-02T07:59:02.968Z,896
2018-11-02T08:00:11.607Z,992
2018-11-02T08:01:20.243Z,1080
2018-11-02T08:02:28.892Z,1156
2018-11-02T08:03:37.527Z,1312
2018-11-02T08:04:46.427Z,1328
2018-11-02T08:05:55.064Z,1372
2018-11-02T08:07:03.702Z,1412
2018-11-02T08:08:12.350Z,1424
2018-11-02T08:09:20.986Z,1404
2018-11-02T08:10:29.630Z,1424
2018-11-02T08:11:38.558Z,1468
2018-11-02T08:12:47.516Z,1504
2018-11-02T08:13:56.367Z,1552
2018-11-02T08:15:05.148Z,1528
2018-11-02T08:16:13.925Z,1612
2018-11-02T08:17:22.604Z,1604
2018-11-02T08:18:31.487Z,1680
2018-11-02T08:19:40.128Z,1852
2018-11-02T08:20:48.759Z,2016
2018-11-02T08:21:57.403Z,2116
2018-11-02T08:23:06.054Z,2180
2018-11-02T08:24:14.953Z,2236
2018-11-02T08:25:23.597Z,2136
2018-11-02T08:26:32.225Z,2064
2018-11-02T08:27:40.867Z,2008
2018-11-02T08:28:49.502Z,2088
2018-11-02T08:29:58.150Z,1960
2018-11-02T08:31:06.781Z,1808
2018-11-02T08:32:15.586Z,1628
2018-11-02T08:33:24.063Z,1476
2018-11-02T08:34:32.710Z,1436
2018-11-02T08:35:41.342Z,1532
2018-11-02T08:36:49.984Z,1860
2018-11-02T08:37:58.891Z,1724
2018-11-02T08:39:07.541Z,1840
2018-11-02T08:40:16.452Z,2292
2018-11-02T08:41:25.093Z,2580
2018-11-02T08:42:33.730Z,2728
2018-11-02T08:43:42.368Z,2356
2018-11-02T08:44:51.018Z,2248
2018-11-02T08:45:59.661Z,1912
2018-11-02T08:47:08.572Z,1896
2018-11-02T08:48:17.468Z,1928
2018-11-02T08:49:26.117Z,2084
2018-11-02T08:50:34.753Z,2428
2018-11-02T08:51:43.398Z,2772
2018-11-02T08:52:52.028Z,2608
2018-11-02T08:54:00.679Z,2388
2018-11-02T08:55:09.593Z,2356
2018-11-02T08:56:18.230Z,2416
2018-11-02T08:57:26.871Z,3016
2018-11-02T08:58:36.383Z,3456
2018-11-02T08:59:44.918Z,4284
2018-11-02T09:00:53.494Z,4016
2018-11-02T09:02:02.123Z,3608
2018-11-02T09:03:10.759Z,3028
2018-11-02T09:04:19.397Z,2592
2018-11-02T09:05:28.038Z,2360
2018-11-02T09:06:36.684Z,1996
2018-11-02T09:07:45.320Z,1708
2018-11-02T09:08:53.968Z,1688
2018-11-02T09:10:02.609Z,1676
2018-11-02T09:11:11.257Z,1688
2018-11-02T09:12:19.896Z,1804
2018-11-02T09:13:28.538Z,1560
2018-11-02T09:14:37.210Z,1316
2018-11-02T09:15:46.122Z,1548
2018-11-02T09:16:55.292Z,1640
2018-11-02T09:18:04.202Z,1556
2018-11-02T09:19:13.196Z,1572
2018-11-02T09:20:21.778Z,1644
2018-11-02T09:21:30.836Z,1692
2018-11-02T09:22:39.654Z,1748
2018-11-02T09:23:48.572Z,1788
2018-11-02T09:24:57.484Z,1896
2018-11-02T09:26:06.564Z,1836
2018-11-02T09:27:16.014Z,1736
2018-11-02T09:28:25.041Z,1632
2018-11-02T09:29:33.972Z,1576
2018-11-02T09:30:43.031Z,1580
2018-11-02T09:31:52.159Z,1556
2018-11-02T09:33:00.876Z,1556
2018-11-02T09:34:09.513Z,1620
2018-11-02T09:35:18.154Z,1728
2018-11-02T09:36:27.354Z,1964
2018-11-02T09:37:35.996Z,2328
2018-11-02T09:38:44.639Z,2752
2018-11-02T09:39:53.279Z,2996
2018-11-02T09:41:02.211Z,3072
2018-11-02T09:42:10.865Z,3184
2018-11-02T09:43:19.497Z,3132
2018-11-02T09:44:28.137Z,3444
2018-11-02T09:45:36.780Z,2748
2018-11-02T09:46:45.419Z,2380
2018-11-02T09:47:54.064Z,2280
2018-11-02T09:49:02.704Z,2208
2018-11-02T09:50:11.354Z,2172
2018-11-02T09:51:20.021Z,2204
2018-11-02T09:52:28.648Z,2384
2018-11-02T09:53:37.294Z,2448
2018-11-02T09:54:45.935Z,2468
2018-11-02T09:55:54.574Z,2516
2018-11-02T09:57:03.214Z,2596
2018-11-02T09:58:11.861Z,2456
2018-11-02T09:59:20.499Z,2340
2018-11-02T10:00:29.147Z,2292
2018-11-02T10:01:37.779Z,2220
2018-11-02T10:02:46.432Z,2056
2018-11-02T10:03:55.350Z,1988
2018-11-02T10:05:04.281Z,2008
2018-11-02T10:06:12.918Z,2084
2018-11-02T10:07:21.596Z,2184
2018-11-02T10:08:30.315Z,2296
2018-11-02T10:09:38.880Z,2268
2018-11-02T10:10:47.511Z,2280
2018-11-02T10:11:56.160Z,2320
2018-11-02T10:13:04.806Z,2304
2018-11-02T10:14:13.448Z,2340
2018-11-02T10:15:22.365Z,2404
2018-11-02T10:16:30.999Z,2588
2018-11-02T10:17:39.919Z,2736
2018-11-02T10:18:48.556Z,2856
2018-11-02T10:19:57.211Z,2896
2018-11-02T10:21:05.845Z,2904
2018-11-02T10:22:14.491Z,2784
2018-11-02T10:23:23.129Z,2652
2018-11-02T10:24:32.057Z,2528
2018-11-02T10:25:40.689Z,2432
2018-11-02T10:26:49.332Z,2464
2018-11-02T10:27:57.981Z,2552
2018-11-02T10:29:06.626Z,2648
2018-11-02T10:30:15.264Z,2764
2018-11-02T10:31:23.903Z,2932
2018-11-02T10:32:32.540Z,3020
2018-11-02T10:33:41.179Z,3032
2018-11-02T10:34:49.831Z,2932
2018-11-02T10:35:58.999Z,2784
2018-11-02T10:37:08.002Z,2704
2018-11-02T10:38:16.638Z,2712
2018-11-02T10:39:25.330Z,2768
2018-11-02T10:40:34.319Z,2900
2018-11-02T10:41:42.963Z,3156
2018-11-02T10:42:51.594Z,3488
2018-11-02T10:44:00.242Z,3796
2018-11-02T10:45:08.883Z,3948
2018-11-02T10:46:17.528Z,4016
2018-11-02T10:47:26.433Z,4064
2018-11-02T10:48:35.360Z,4032
2018-11-02T10:49:44.012Z,3884
2018-11-02T10:50:52.649Z,3628
2018-11-02T10:52:01.325Z,3304
2018-11-02T10:53:09.958Z,2832
2018-11-02T10:54:18.638Z,2432
2018-11-02T10:55:27.510Z,2292
2018-11-02T10:56:36.221Z,2292
2018-11-02T10:57:44.796Z,2304
2018-11-02T10:58:53.438Z,2396
2018-11-02T11:00:02.098Z,2468
2018-11-02T11:01:10.759Z,2516
2018-11-02T11:02:19.648Z,2488
2018-11-02T11:03:28.290Z,2472
2018-11-02T11:04:37.222Z,2536
2018-11-02T11:05:45.866Z,2492
2018-11-02T11:06:54.505Z,2364
2018-11-02T11:08:03.145Z,2264
2018-11-02T11:09:11.785Z,2248
2018-11-02T11:10:20.695Z,2292
2018-11-02T11:11:29.423Z,2352
2018-11-02T11:12:38.396Z,2452
2018-11-02T11:13:47.456Z,2584
2018-11-02T11:14:55.633Z,2676
2018-11-02T11:16:04.550Z,2660
2018-11-02T11:17:13.467Z,2552
2018-11-02T11:18:22.109Z,2464
2018-11-02T11:19:30.742Z,2448
2018-11-02T11:20:39.388Z,2544
2018-11-02T11:21:48.029Z,2696
2018-11-02T11:22:56.673Z,2876
2018-11-02T11:24:05.311Z,3140
2018-11-02T11:25:13.954Z,3412
2018-11-02T11:26:22.595Z,3392
2018-11-02T11:27:31.515Z,3260
2018-11-02T11:28:40.198Z,2968
2018-11-02T11:29:48.794Z,2488
2018-11-02T11:30:57.435Z,2036
2018-11-02T11:32:06.078Z,1616
2018-11-02T11:33:15.027Z,1292
2018-11-02T11:34:23.683Z,1148
2018-11-02T11:35:32.601Z,1172
2018-11-02T11:36:41.242Z,1360
2018-11-02T11:37:50.224Z,1556
2018-11-02T11:38:59.417Z,1620
2018-11-02T11:40:08.059Z,1488
2018-11-02T11:41:16.696Z,1344
2018-11-02T11:42:25.343Z,1180
2018-11-02T11:43:33.980Z,1084
2018-11-02T11:44:42.625Z,1108
2018-11-02T11:45:51.535Z,1328
2018-11-02T11:47:00.172Z,1564
2018-11-02T11:48:08.818Z,1696
2018-11-02T11:49:17.814Z,1776
2018-11-02T11:50:26.379Z,1860
2018-11-02T11:51:35.017Z,1996
2018-11-02T11:52:43.661Z,2184
2018-11-02T11:53:52.301Z,2472
2018-11-02T11:55:00.943Z,2732
2018-11-02T11:56:09.587Z,2920
2018-11-02T11:57:18.428Z,3100
2018-11-02T11:58:27.151Z,3252
2018-11-02T11:59:35.854Z,3176
2018-11-02T12:00:44.498Z,3248
2018-11-02T12:01:53.434Z,3320
2018-11-02T12:03:02.349Z,3744
2018-11-02T12:04:11.053Z,3256
2018-11-02T12:05:20.379Z,3256
2018-11-02T12:06:29.270Z,3276
2018-11-02T12:07:38.023Z,3316
2018-11-02T12:08:46.605Z,3332
2018-11-02T12:09:55.534Z,3268
2018-11-02T12:11:04.221Z,3188
2018-11-02T12:12:13.740Z,3132
2018-11-02T12:13:22.382Z,3056
2018-11-02T12:14:31.080Z,3040
2018-11-02T12:15:39.826Z,2964
2018-11-02T12:16:48.694Z,2836
2018-11-02T12:17:57.794Z,2716
2018-11-02T12:19:06.529Z,2632
2018-11-02T12:20:15.222Z,2612
2018-11-02T12:21:23.958Z,2580
2018-11-02T12:22:32.573Z,2520
2018-11-02T12:23:41.238Z,2508
2018-11-02T12:24:49.979Z,2456
2018-11-02T12:25:58.695Z,2428
2018-11-02T12:27:07.406Z,2456
2018-11-02T12:28:16.618Z,2544
2018-11-02T12:29:25.321Z,2688
2018-11-02T12:30:34.293Z,2820
2018-11-02T12:31:42.911Z,2892
2018-11-02T12:32:51.556Z,2956
2018-11-02T12:34:00.194Z,3188
2018-11-02T12:35:09.110Z,3760
2018-11-02T12:36:17.748Z,3520
2018-11-02T12:37:26.397Z,3532
2018-11-02T12:38:35.037Z,3688
2018-11-02T12:39:43.682Z,3180
2018-11-02T12:40:52.591Z,3152
2018-11-02T12:42:01.236Z,3044
2018-11-02T12:43:09.932Z,3224
2018-11-02T12:44:18.530Z,3480
2018-11-02T12:45:27.171Z,3244
2018-11-02T12:46:35.812Z,3120
2018-11-02T12:47:44.525Z,2948
2018-11-02T12:48:53.372Z,2692
2018-11-02T12:50:02.133Z,2596
2018-11-02T12:51:10.999Z,2532
2018-11-02T12:52:19.647Z,2468
2018-11-02T12:53:28.286Z,2396
2018-11-02T12:54:36.932Z,2376
2018-11-02T12:55:46.114Z,2352
2018-11-02T12:56:54.759Z,2296
2018-11-02T12:58:03.697Z,2236
2018-11-02T12:59:12.339Z,2188
2018-11-02T13:00:20.986Z,2144
2018-11-02T13:01:29.624Z,2064
2018-11-02T13:02:38.270Z,1732
2018-11-02T13:03:46.912Z,1980
2018-11-02T13:04:55.562Z,1608
2018-11-02T13:06:04.196Z,1440
2018-11-02T13:07:13.154Z,1580
2018-11-02T13:08:22.352Z,1544
2018-11-02T13:09:31.478Z,1328
2018-11-02T13:10:40.021Z,1316
2018-11-02T13:11:48.665Z,1360
2018-11-02T13:12:57.306Z,1420
2018-11-02T13:14:05.966Z,1460
2018-11-02T13:15:14.882Z,1480
2018-11-02T13:16:23.520Z,1508
2018-11-02T13:17:32.204Z,1520
2018-11-02T13:18:41.088Z,1508
2018-11-02T13:19:49.727Z,1460
2018-11-02T13:20:58.368Z,1372
2018-11-02T13:22:07.044Z,1252
2018-11-02T13:23:16.188Z,1148
2018-11-02T13:24:24.839Z,1104
2018-11-02T13:25:34.101Z,1104
2018-11-02T13:26:43.005Z,1128
2018-11-02T13:27:51.907Z,1212
2018-11-02T13:29:00.826Z,1312
2018-11-02T13:30:09.541Z,1396
2018-11-02T13:31:19.135Z,1452
2018-11-02T13:32:27.657Z,1476
2018-11-02T13:33:36.305Z,1532
2018-11-02T13:34:44.947Z,1556
2018-11-02T13:35:53.614Z,1540
2018-11-02T13:37:02.719Z,1556
2018-11-02T13:38:11.260Z,1696
2018-11-02T13:39:19.904Z,1860
2018-11-02T13:40:28.579Z,1888
2018-11-02T13:41:37.542Z,1792
2018-11-02T13:42:46.447Z,1712
2018-11-02T13:43:55.377Z,1672
2018-11-02T13:45:04.018Z,1660
2018-11-02T13:46:12.944Z,1632
2018-11-02T13:47:21.851Z,1488
2018-11-02T13:48:30.493Z,1336
2018-11-02T13:49:39.134Z,1200
2018-11-02T13:50:47.785Z,1108
2018-11-02T13:51:56.431Z,1044
2018-11-02T13:53:05.353Z,1000
2018-11-02T13:54:13.992Z,976
2018-11-02T13:55:22.925Z,964
2018-11-02T13:56:31.576Z,956
2018-11-02T13:57:40.217Z,976
2018-11-02T13:58:48.916Z,988
2018-11-02T13:59:57.562Z,1016
2018-11-02T14:01:06.565Z,1028
2018-11-02T14:02:15.165Z,1032
2018-11-02T14:03:24.175Z,1084
2018-11-02T14:04:33.149Z,1148
2018-11-02T14:05:41.795Z,1208
2018-11-02T14:06:50.433Z,1292
2018-11-02T14:07:59.076Z,1368
2018-11-02T14:09:07.709Z,1400
2018-11-02T14:10:16.356Z,1408
2018-11-02T14:11:25.076Z,1436
2018-11-02T14:12:34.001Z,1448
2018-11-02T14:13:42.638Z,1460
2018-11-02T14:14:51.275Z,1524
2018-11-02T14:16:00.194Z,1580
2018-11-02T14:17:09.098Z,1596
2018-11-02T14:18:18.116Z,1584
2018-11-02T14:19:27.224Z,1592
2018-11-02T14:20:35.868Z,1504
2018-11-02T14:21:44.783Z,1516
2018-11-02T14:22:53.435Z,1520
2018-11-02T14:24:02.064Z,1536
2018-11-02T14:25:10.709Z,1500
2018-11-02T14:26:19.350Z,1488
2018-11-02T14:27:28.623Z,1488
2018-11-02T14:28:37.264Z,1476
2018-11-02T14:29:46.681Z,1468
2018-11-02T14:30:55.319Z,1452
2018-11-02T14:32:03.964Z,1432
2018-11-02T14:33:12.617Z,1380
2018-11-02T14:34:21.528Z,1316
2018-11-02T14:35:30.172Z,1260
2018-11-02T14:36:39.079Z,1200
2018-11-02T14:37:48.012Z,1152
2018-11-02T14:38:56.921Z,1112
2018-11-02T14:40:05.570Z,1080
2018-11-02T14:41:14.224Z,1068
2018-11-02T14:42:22.852Z,1064
2018-11-02T14:43:31.491Z,1072
2018-11-02T14:44:40.133Z,1092
2018-11-02T14:45:48.766Z,1092
2018-11-02T14:46:57.410Z,1052
2018-11-02T14:48:06.328Z,1008
2018-11-02T14:49:14.970Z,956
2018-11-02T14:50:23.898Z,908
2018-11-02T14:51:32.810Z,880
2018-11-02T14:52:41.453Z,852
2018-11-02T14:53:50.268Z,840
2018-11-02T14:54:59.156Z,792
2018-11-02T14:56:07.791Z,740
2018-11-02T14:57:16.434Z,676
2018-11-02T14:58:25.348Z,620
2018-11-02T14:59:34.397Z,584
2018-11-02T15:00:43.024Z,548
2018-11-02T15:01:51.662Z,532
2018-11-02T15:03:00.567Z,520
2018-11-02T15:04:09.212Z,504
2018-11-02T15:05:17.850Z,488
2018-11-02T15:06:26.492Z,484
2018-11-02T15:07:35.132Z,488
2018-11-02T15:08:43.772Z,496
2018-11-02T15:09:52.419Z,516
2018-11-02T15:11:01.342Z,540
2018-11-02T15:12:09.984Z,564
2018-11-02T15:13:18.620Z,588
2018-11-02T15:14:27.267Z,608
2018-11-02T15:15:35.911Z,612
2018-11-02T15:16:44.553Z,624
2018-11-02T15:17:53.195Z,624
2018-11-02T15:19:01.842Z,620
2018-11-02T15:20:10.748Z,604
2018-11-02T15:21:19.396Z,592
2018-11-02T15:22:28.032Z,580
2018-11-02T15:23:36.946Z,564
2018-11-02T15:24:45.588Z,556
2018-11-02T15:25:54.232Z,548
2018-11-02T15:27:02.878Z,536
2018-11-02T15:28:11.789Z,524
2018-11-02T15:29:20.430Z,524
2018-11-02T15:30:29.128Z,516
2018-11-02T15:31:37.714Z,500
2018-11-02T15:32:46.350Z,476
2018-11-02T15:33:54.994Z,464
2018-11-02T15:35:03.635Z,440
2018-11-02T15:36:12.279Z,408
2018-11-02T15:37:20.918Z,384
2018-11-02T15:38:29.561Z,360
2018-11-02T15:39:38.211Z,340
2018-11-02T15:40:46.855Z,328
2018-11-02T15:41:55.493Z,308
2018-11-02T15:43:04.135Z,296
2018-11-02T15:44:13.489Z,284
2018-11-02T15:45:22.058Z,268
2018-11-02T15:46:30.703Z,248
2018-11-02T15:47:39.346Z,236
2018-11-02T15:48:48.267Z,220
2018-11-02T15:49:56.905Z,208
2018-11-02T15:51:05.552Z,192
2018-11-02T15:52:14.192Z,180
2018-11-02T15:53:23.001Z,164
2018-11-02T15:54:31.475Z,152
2018-11-02T15:55:40.111Z,140
2018-11-02T15:56:49.058Z,124
2018-11-02T15:57:57.970Z,112
2018-11-02T15:59:06.615Z,100